Time;durP1;ratioP1;P1;durP2;ratioP2;P2;SDS_P1;SDS_P2;PMS_P1;PMS_P2;Temp;Humidity;BMP_temperature;BMP_pressure;BME280_temperature;BME280_humidity;BME280_pressure;Samples;Min_cycle;Max_cycle;Signal;HPM_P1;HPM_P2
2023/12/25 00:00:28;;;;;;;17.92;11.43;;;;;;;7.76;100.00;99570.22;5608823;31;34237;-71
2023/12/25 00:03:31;;;;;;;14.68;10.88;;;;;;;7.62;100.00;99571.75;5608650;31;34145;-71
2023/12/25 00:06:46;;;;;;;16.50;11.60;;;;;;;7.55;100.00;99540.94;5608635;31;34112;-72
2023/12/25 00:09:49;;;;;;;16.90;11.27;;;;;;;7.52;100.00;99543.91;5608512;31;35125;-72
2023/12/25 00:12:52;;;;;;;16.87;11.95;;;;;;;7.51;100.00;99564.19;5608340;31;34341;-73
2023/12/25 00:15:57;;;;;;;18.45;11.57;;;;;;;7.31;100.00;99558.44;5608146;31;33642;-73
2023/12/25 00:19:11;;;;;;;18.70;12.25;;;;;;;7.25;100.00;99553.84;5608531;31;34807;-71
2023/12/25 00:22:14;;;;;;;18.92;12.43;;;;;;;7.22;100.00;99545.44;5608273;31;34057;-72
2023/12/25 00:25:17;;;;;;;20.67;12.43;;;;;;;7.17;100.00;99540.66;5608396;31;34035;-72
2023/12/25 00:28:20;;;;;;;18.67;12.90;;;;;;;7.19;100.00;99540.50;5608452;31;34042;-72
2023/12/25 00:31:23;;;;;;;23.25;12.35;;;;;;;7.19;100.00;99533.41;5608456;31;35056;-73
2023/12/25 00:34:28;;;;;;;18.20;12.80;;;;;;;7.25;100.00;99537.19;5608259;31;34051;-71
2023/12/25 00:37:32;;;;;;;18.83;12.65;;;;;;;7.21;100.00;99543.81;5608260;31;34148;-71
2023/12/25 00:40:36;;;;;;;20.70;12.95;;;;;;;7.14;100.00;99535.72;5608184;31;35093;-71
2023/12/25 00:43:44;;;;;;;19.65;12.80;;;;;;;7.21;100.00;99555.16;5608087;31;34886;-72
2023/12/25 00:46:48;;;;;;;19.45;13.30;;;;;;;7.20;100.00;99560.63;5607880;31;34399;-71
2023/12/25 00:49:51;;;;;;;18.33;12.90;;;;;;;7.29;100.00;99551.69;5608534;31;34284;-71
2023/12/25 00:52:54;;;;;;;18.37;13.15;;;;;;;7.21;100.00;99549.09;5608192;31;34160;-71
2023/12/25 00:55:59;;;;;;;19.10;13.38;;;;;;;7.34;100.00;99557.31;5608018;31;34286;-72
2023/12/25 00:59:02;;;;;;;20.58;13.18;;;;;;;7.24;100.00;99569.84;5607925;31;34047;-72
2023/12/25 01:02:05;;;;;;;19.67;13.02;;;;;;;7.18;100.00;99573.97;5607922;31;34048;-71
2023/12/25 01:05:09;;;;;;;17.58;13.20;;;;;;;7.20;100.00;99574.63;5607928;31;34248;-71
2023/12/25 01:08:13;;;;;;;21.48;13.00;;;;;;;7.23;100.00;99586.66;5607935;31;34165;-71
2023/12/25 01:11:16;;;;;;;23.60;13.88;;;;;;;7.22;100.00;99596.37;5608103;31;34202;-72
2023/12/25 01:14:19;;;;;;;21.25;13.30;;;;;;;7.17;100.00;99593.41;5607457;31;34346;-71
2023/12/25 01:17:22;;;;;;;17.30;13.45;;;;;;;7.24;100.00;99588.31;5607634;31;34133;-70
2023/12/25 01:20:25;;;;;;;24.73;13.25;;;;;;;7.28;100.00;99594.91;5607580;31;34444;-71
2023/12/25 01:23:28;;;;;;;20.98;13.95;;;;;;;7.25;100.00;99595.25;5607636;31;34072;-71
2023/12/25 01:26:31;;;;;;;23.33;14.05;;;;;;;7.14;100.00;99599.03;5606975;31;34094;-72
2023/12/25 01:29:34;;;;;;;25.83;14.20;;;;;;;7.09;100.00;99613.69;5608555;31;34088;-72
2023/12/25 01:32:38;;;;;;;21.17;14.15;;;;;;;7.05;100.00;99620.28;5610086;31;33993;-73
2023/12/25 01:35:42;;;;;;;21.23;14.52;;;;;;;6.88;100.00;99616.78;5610281;31;34707;-72
2023/12/25 01:38:45;;;;;;;22.95;14.73;;;;;;;6.73;100.00;99611.31;5609798;31;34030;-73
2023/12/25 01:41:48;;;;;;;22.90;14.68;;;;;;;6.61;100.00;99606.53;5609878;31;34059;-72
2023/12/25 01:44:51;;;;;;;23.48;15.27;;;;;;;6.63;100.00;99612.47;5609913;31;34392;-73
2023/12/25 01:47:55;;;;;;;22.98;15.20;;;;;;;6.58;100.00;99620.03;5609861;31;34232;-74
2023/12/25 01:51:00;;;;;;;25.08;14.82;;;;;;;6.55;100.00;99616.72;5609827;31;34149;-73
2023/12/25 01:54:06;;;;;;;22.52;15.35;;;;;;;6.53;100.00;99629.22;5610141;31;34745;-73
2023/12/25 01:57:09;;;;;;;22.85;15.05;;;;;;;6.57;100.00;99618.38;5609903;31;34702;-73
2023/12/25 02:00:13;;;;;;;21.87;15.40;;;;;;;6.62;100.00;99608.19;5609510;31;34316;-73
2023/12/25 02:03:18;;;;;;;24.10;15.57;;;;;;;6.57;100.00;99613.13;5609547;31;34669;-73
2023/12/25 02:06:22;;;;;;;22.00;14.38;;;;;;;6.49;100.00;99604.19;5609658;31;34137;-73
2023/12/25 02:09:28;;;;;;;22.02;15.73;;;;;;;6.49;100.00;99598.91;5609540;31;34079;-72
2023/12/25 02:12:30;;;;;;;25.25;15.10;;;;;;;6.50;100.00;99608.47;5609614;31;34217;-73
2023/12/25 02:15:34;;;;;;;21.75;15.50;;;;;;;6.55;100.00;99608.00;5609493;31;34311;-72
2023/12/25 02:18:37;;;;;;;23.50;15.00;;;;;;;6.54;100.00;99614.25;5609443;31;35105;-73
2023/12/25 02:21:42;;;;;;;23.25;14.73;;;;;;;6.54;100.00;99630.88;5609114;31;33956;-73
2023/12/25 02:25:12;;;;;;;18.15;13.48;;;;;;;6.53;100.00;99626.59;5609569;31;34102;-73
2023/12/25 02:28:15;;;;;;;22.33;13.88;;;;;;;6.61;100.00;99625.81;5609096;31;33850;-73
2023/12/25 02:31:19;;;;;;;17.67;12.48;;;;;;;6.64;100.00;99614.94;5609565;31;34806;-72
2023/12/25 02:34:25;;;;;;;16.17;12.15;;;;;;;6.69;100.00;99617.91;5609353;31;34805;-73
2023/12/25 02:37:27;;;;;;;12.15;8.30;;;;;;;6.76;100.00;99604.91;5609427;31;34767;-73
2023/12/25 02:40:31;;;;;;;9.00;6.82;;;;;;;7.00;100.00;99599.69;5609066;31;34130;-72
2023/12/25 02:43:33;;;;;;;9.60;6.35;;;;;;;7.40;100.00;99601.50;5608720;31;34114;-74
2023/12/25 02:46:37;;;;;;;12.65;6.95;;;;;;;7.53;100.00;99609.72;5609284;31;34335;-74
2023/12/25 02:49:40;;;;;;;10.20;5.80;;;;;;;7.70;100.00;99626.34;5609364;31;34141;-73
2023/12/25 02:52:43;;;;;;;8.88;5.15;;;;;;;8.08;100.00;99644.13;5609334;31;34343;-73
2023/12/25 02:55:46;;;;;;;6.87;4.65;;;;;;;8.20;100.00;99641.91;5609497;31;34696;-73
2023/12/25 02:58:49;;;;;;;5.50;3.62;;;;;;;8.10;100.00;99652.66;5609180;31;34144;-73
2023/12/25 03:01:52;;;;;;;5.10;2.45;;;;;;;8.69;100.00;99643.37;5609231;31;34070;-73
2023/12/25 03:04:56;;;;;;;4.22;2.83;;;;;;;9.24;100.00;99646.84;5609176;31;34138;-72
2023/12/25 03:07:58;;;;;;;5.75;2.90;;;;;;;9.28;100.00;99637.53;5609165;31;35114;-72
2023/12/25 03:11:02;;;;;;;5.80;2.35;;;;;;;9.35;100.00;99644.59;5609489;31;34109;-72
2023/12/25 03:14:05;;;;;;;3.70;2.28;;;;;;;9.48;100.00;99621.00;5609091;31;34094;-72
2023/12/25 03:17:08;;;;;;;4.78;1.90;;;;;;;9.77;100.00;99638.78;5609004;31;34300;-71
2023/12/25 03:20:12;;;;;;;4.43;2.00;;;;;;;9.90;100.00;99641.59;5608900;31;34062;-72
2023/12/25 03:23:15;;;;;;;4.53;2.00;;;;;;;10.04;100.00;99646.09;5608952;31;33726;-72
2023/12/25 03:26:18;;;;;;;4.28;1.98;;;;;;;10.21;100.00;99652.06;5609430;31;34133;-71
2023/12/25 03:29:22;;;;;;;3.45;1.87;;;;;;;10.11;100.00;99661.28;5608937;31;34154;-71
2023/12/25 03:32:25;;;;;;;4.65;2.00;;;;;;;10.10;100.00;99651.66;5608991;31;34006;-72
2023/12/25 03:35:28;;;;;;;3.60;1.80;;;;;;;10.10;100.00;99660.44;5609095;31;34127;-71
2023/12/25 03:38:31;;;;;;;4.12;1.70;;;;;;;10.14;100.00;99652.94;5608014;31;35058;-69
2023/12/25 03:41:35;;;;;;;2.97;1.60;;;;;;;10.37;100.00;99635.13;5608049;31;34103;-71
2023/12/25 03:44:38;;;;;;;3.03;1.40;;;;;;;10.46;100.00;99655.25;5608965;31;34037;-71
2023/12/25 03:47:44;;;;;;;6.85;1.98;;;;;;;10.63;100.00;99638.13;5608948;31;34577;-71
2023/12/25 03:50:47;;;;;;;2.33;1.52;;;;;;;10.61;100.00;99648.09;5608929;31;33998;-71
2023/12/25 03:53:50;;;;;;;4.35;1.50;;;;;;;10.58;100.00;99642.34;5607452;31;34156;-70
2023/12/25 03:56:53;;;;;;;3.97;1.33;;;;;;;10.56;100.00;99653.13;5608744;31;34102;-72
2023/12/25 03:59:57;;;;;;;3.40;1.50;;;;;;;10.40;100.00;99640.09;5608665;31;34146;-71
2023/12/25 04:03:00;;;;;;;2.72;1.27;;;;;;;10.56;100.00;99655.78;5607890;31;34107;-71
2023/12/25 04:06:04;;;;;;;3.65;1.33;;;;;;;10.85;100.00;99646.94;5608552;31;34127;-71
2023/12/25 04:09:07;;;;;;;2.15;1.02;;;;;;;10.88;100.00;99651.88;5608708;31;33954;-72
2023/12/25 04:12:10;;;;;;;2.62;1.30;;;;;;;10.94;100.00;99632.53;5608136;31;34051;-71
2023/12/25 04:15:13;;;;;;;3.58;1.17;;;;;;;11.00;100.00;99629.13;5608418;31;34287;-70
2023/12/25 04:18:17;;;;;;;2.87;1.00;;;;;;;11.37;100.00;99638.69;5608625;31;34184;-70
2023/12/25 04:21:28;;;;;;;2.20;1.10;;;;;;;11.48;100.00;99630.19;5608493;31;34008;-71
2023/12/25 04:24:32;;;;;;;3.03;1.10;;;;;;;11.57;100.00;99638.88;5608700;31;34122;-72
2023/12/25 04:27:37;;;;;;;3.25;1.00;;;;;;;11.56;100.00;99630.06;5608467;31;34202;-71
2023/12/25 04:30:41;;;;;;;1.73;0.98;;;;;;;11.66;100.00;99633.22;5608034;31;34000;-71
2023/12/25 04:33:45;;;;;;;2.83;1.27;;;;;;;11.67;100.00;99644.66;5608441;31;34747;-72
2023/12/25 04:36:51;;;;;;;2.65;0.80;;;;;;;11.83;100.00;99640.91;5608383;31;34082;-71
2023/12/25 04:39:54;;;;;;;2.67;0.90;;;;;;;11.73;100.00;99644.75;5608222;31;34227;-74
2023/12/25 04:42:57;;;;;;;3.58;1.10;;;;;;;11.59;100.00;99635.00;5608286;31;34060;-71
2023/12/25 04:46:02;;;;;;;3.72;0.95;;;;;;;11.57;100.00;99626.38;5607486;31;34005;-72
2023/12/25 04:49:06;;;;;;;3.28;1.08;;;;;;;11.58;100.00;99641.31;5608040;31;34191;-70
2023/12/25 04:52:11;;;;;;;3.22;0.80;;;;;;;11.83;100.00;99631.12;5608455;31;34058;-70
2023/12/25 04:55:16;;;;;;;2.72;0.90;;;;;;;12.04;100.00;99631.06;5608092;31;33976;-71
2023/12/25 04:58:20;;;;;;;2.30;0.80;;;;;;;12.11;100.00;99631.09;5608484;31;34268;-71
2023/12/25 05:01:23;;;;;;;2.87;0.93;;;;;;;12.01;100.00;99638.59;5607187;31;34160;-71
2023/12/25 05:04:27;;;;;;;2.10;0.80;;;;;;;12.19;100.00;99629.13;5607927;31;34022;-72
2023/12/25 05:07:30;;;;;;;2.03;0.88;;;;;;;12.41;100.00;99632.47;5608161;31;34191;-71
2023/12/25 05:10:33;;;;;;;1.35;0.80;;;;;;;12.40;100.00;99633.50;5607848;31;34130;-71
2023/12/25 05:13:36;;;;;;;1.70;0.80;;;;;;;12.50;100.00;99643.75;5607546;31;34021;-71
2023/12/25 05:16:39;;;;;;;1.23;0.70;;;;;;;12.51;100.00;99654.22;5607792;31;34440;-71
2023/12/25 05:19:43;;;;;;;1.42;0.70;;;;;;;12.57;100.00;99641.97;5607400;31;35319;-71
2023/12/25 05:22:46;;;;;;;2.05;0.82;;;;;;;12.63;100.00;99652.63;5607601;31;34262;-71
2023/12/25 05:25:52;;;;;;;1.30;0.80;;;;;;;12.79;100.00;99643.47;5607698;31;34642;-71
2023/12/25 05:28:55;;;;;;;1.83;0.80;;;;;;;12.94;100.00;99627.34;5607566;31;34213;-71
2023/12/25 05:31:58;;;;;;;1.67;0.70;;;;;;;12.85;100.00;99633.88;5607485;31;34055;-71
2023/12/25 05:35:03;;;;;;;3.10;0.98;;;;;;;12.93;100.00;99650.47;5607245;31;34676;-71
2023/12/25 05:38:07;;;;;;;2.00;0.80;;;;;;;12.96;100.00;99655.41;5607645;31;34254;-71
2023/12/25 05:41:10;;;;;;;1.12;0.70;;;;;;;12.90;100.00;99644.75;5606716;31;34048;-72
2023/12/25 05:44:13;;;;;;;2.90;0.70;;;;;;;12.98;100.00;99664.00;5606583;31;34200;-71
2023/12/25 05:47:16;;;;;;;2.30;0.60;;;;;;;13.12;100.00;99656.09;5607075;31;34058;-70
2023/12/25 05:50:20;;;;;;;1.40;0.60;;;;;;;13.27;100.00;99654.06;5607029;31;34506;-71
2023/12/25 05:53:24;;;;;;;2.22;0.80;;;;;;;13.23;100.00;99666.16;5607027;31;34025;-71
2023/12/25 05:56:28;;;;;;;1.25;0.52;;;;;;;13.14;100.00;99680.69;5606453;31;35166;-70
2023/12/25 05:59:30;;;;;;;0.80;0.52;;;;;;;13.10;100.00;99669.59;5605918;31;34162;-71
2023/12/25 06:02:34;;;;;;;0.98;0.60;;;;;;;13.12;100.00;99672.87;5606929;31;34862;-70
2023/12/25 06:05:37;;;;;;;1.87;0.60;;;;;;;13.07;100.00;99656.66;5606996;31;34699;-71
2023/12/25 06:08:40;;;;;;;2.17;0.50;;;;;;;13.04;100.00;99675.69;5606837;31;35179;-71
2023/12/25 06:11:43;;;;;;;1.45;0.50;;;;;;;13.24;100.00;99644.66;5606667;31;34986;-72
2023/12/25 06:14:46;;;;;;;1.15;0.60;;;;;;;13.37;100.00;99655.31;5606139;31;35046;-70
2023/12/25 06:17:50;;;;;;;1.77;0.70;;;;;;;13.27;100.00;99672.72;5610021;31;33713;-72
2023/12/25 06:20:53;;;;;;;2.45;0.60;;;;;;;13.20;100.00;99656.72;5609311;31;35324;-72
2023/12/25 06:23:59;;;;;;;1.45;0.62;;;;;;;13.31;100.00;99676.62;5609104;31;34145;-71
2023/12/25 06:27:03;;;;;;;1.95;0.62;;;;;;;13.35;100.00;99680.53;5609693;31;35630;-72
2023/12/25 06:30:06;;;;;;;2.70;0.70;;;;;;;13.31;100.00;99704.06;5609526;31;34651;-71
2023/12/25 06:33:09;;;;;;;2.97;0.68;;;;;;;13.30;100.00;99696.28;5609478;31;34333;-71
2023/12/25 06:36:14;;;;;;;1.08;0.60;;;;;;;13.28;100.00;99704.47;5609891;31;34683;-70
2023/12/25 06:39:17;;;;;;;2.55;0.80;;;;;;;13.26;100.00;99711.87;5609451;31;34005;-71
2023/12/25 06:42:20;;;;;;;1.83;0.75;;;;;;;13.29;100.00;99706.13;5609274;31;34116;-71
2023/12/25 06:45:23;;;;;;;1.17;0.70;;;;;;;13.14;100.00;99705.47;5609257;31;34125;-71
2023/12/25 06:48:29;;;;;;;1.02;0.70;;;;;;;13.14;100.00;99696.66;5609450;31;34054;-72
2023/12/25 06:51:32;;;;;;;1.70;0.60;;;;;;;13.18;100.00;99713.88;5608489;31;34875;-72
2023/12/25 06:54:35;;;;;;;1.80;0.70;;;;;;;13.05;100.00;99728.78;5609289;31;34073;-71
2023/12/25 06:57:38;;;;;;;2.50;0.90;;;;;;;13.04;100.00;99731.63;5609090;31;34873;-72
2023/12/25 07:00:42;;;;;;;1.73;0.70;;;;;;;12.85;100.00;99729.69;5608847;31;34016;-72
2023/12/25 07:03:45;;;;;;;1.85;0.75;;;;;;;12.73;100.00;99726.78;5609539;31;34654;-71
2023/12/25 07:06:50;;;;;;;1.35;0.70;;;;;;;12.48;100.00;99728.28;5609020;31;34125;-71
2023/12/25 07:09:53;;;;;;;1.35;0.80;;;;;;;12.30;100.00;99722.62;5608448;31;34609;-71
2023/12/25 07:12:56;;;;;;;2.53;1.10;;;;;;;12.43;100.00;99725.41;5608907;31;34345;-71
2023/12/25 07:16:00;;;;;;;2.67;0.90;;;;;;;12.47;100.00;99723.97;5609341;31;34098;-71
2023/12/25 07:19:04;;;;;;;3.03;1.10;;;;;;;12.25;100.00;99720.56;5609203;31;34158;-71
2023/12/25 07:22:07;;;;;;;2.58;1.00;;;;;;;12.42;100.00;99732.56;5609091;31;34979;-72
2023/12/25 07:25:11;;;;;;;2.40;1.08;;;;;;;12.35;100.00;99733.50;5608837;31;34055;-71
2023/12/25 07:28:13;;;;;;;2.03;1.10;;;;;;;12.32;100.00;99737.41;5607855;31;34455;-71
2023/12/25 07:31:17;;;;;;;1.67;0.82;;;;;;;12.49;100.00;99735.25;5609316;31;34099;-72
2023/12/25 07:34:20;;;;;;;1.20;0.70;;;;;;;12.66;100.00;99747.22;5608848;31;34709;-71
2023/12/25 07:37:24;;;;;;;1.42;0.88;;;;;;;12.78;100.00;99742.97;5608647;31;34776;-71
2023/12/25 07:40:26;;;;;;;1.87;0.90;;;;;;;12.92;100.00;99742.03;5608801;31;34212;-71
2023/12/25 07:43:31;;;;;;;1.60;0.88;;;;;;;12.94;100.00;99745.31;5608258;31;34104;-72
2023/12/25 07:46:35;;;;;;;3.58;0.95;;;;;;;12.77;100.00;99752.00;5608774;31;33784;-72
2023/12/25 07:49:38;;;;;;;2.45;1.15;;;;;;;12.80;100.00;99772.06;5608814;31;34215;-71
2023/12/25 07:52:41;;;;;;;4.72;1.10;;;;;;;12.81;100.00;99777.19;5607699;31;34354;-71
2023/12/25 07:55:45;;;;;;;1.20;0.90;;;;;;;12.83;100.00;99774.34;5609102;31;34746;-72
2023/12/25 07:58:48;;;;;;;1.48;0.93;;;;;;;12.84;100.00;99768.81;5609058;31;34254;-72
2023/12/25 08:01:52;;;;;;;3.87;0.90;;;;;;;12.83;100.00;99771.69;5608632;31;34806;-72
2023/12/25 08:04:55;;;;;;;4.20;0.90;;;;;;;12.88;100.00;99782.53;5608568;31;34736;-71
2023/12/25 08:07:58;;;;;;;2.12;1.00;;;;;;;12.94;100.00;99776.44;5608511;31;34017;-72
2023/12/25 08:11:02;;;;;;;3.47;1.00;;;;;;;12.97;100.00;99784.84;5608591;31;34265;-72
2023/12/25 08:14:05;;;;;;;1.55;0.80;;;;;;;12.96;100.00;99780.56;5608388;31;35050;-72
2023/12/25 08:17:09;;;;;;;2.40;0.95;;;;;;;12.99;100.00;99793.47;5609029;31;32821;-72
2023/12/25 08:20:12;;;;;;;3.17;1.00;;;;;;;13.13;100.00;99798.88;5608579;31;34148;-71
2023/12/25 08:23:15;;;;;;;3.28;1.00;;;;;;;13.08;100.00;99813.56;5594725;31;35054;-71
2023/12/25 08:26:18;;;;;;;2.37;0.90;;;;;;;13.06;100.00;99809.47;5607786;31;34107;-71
2023/12/25 08:29:21;;;;;;;3.55;1.00;;;;;;;13.04;100.00;99804.34;5608666;31;33948;-71
2023/12/25 08:32:24;;;;;;;1.45;0.90;;;;;;;13.01;100.00;99802.09;5608562;31;34282;-72
2023/12/25 08:35:27;;;;;;;2.00;0.93;;;;;;;13.05;100.00;99813.97;5608534;31;34628;-72
2023/12/25 08:38:30;;;;;;;1.58;0.90;;;;;;;13.08;100.00;99802.09;5607965;31;34253;-72
2023/12/25 08:41:35;;;;;;;2.15;0.80;;;;;;;13.15;100.00;99792.34;5607675;31;34690;-72
2023/12/25 08:44:40;;;;;;;1.35;0.80;;;;;;;13.32;100.00;99798.94;5608231;31;34692;-72
2023/12/25 08:47:43;;;;;;;1.15;0.70;;;;;;;13.56;100.00;99815.41;5608174;31;34037;-72
2023/12/25 08:50:46;;;;;;;1.77;0.75;;;;;;;13.43;100.00;99825.03;5608135;31;34028;-71
2023/12/25 08:53:50;;;;;;;2.12;0.80;;;;;;;13.52;100.00;99822.19;5607527;31;35341;-71
2023/12/25 08:56:53;;;;;;;1.75;0.40;;;;;;;13.69;100.00;99829.62;5607396;31;34086;-71
2023/12/25 08:59:56;;;;;;;1.12;0.80;;;;;;;13.69;100.00;99824.31;5607226;31;34150;-72
2023/12/25 09:02:58;;;;;;;6.47;4.00;;;;;;;13.68;100.00;99829.81;5608018;31;34115;-71
2023/12/25 09:06:03;;;;;;;11.70;5.00;;;;;;;13.12;100.00;99831.88;5608328;31;34714;-71
2023/12/25 09:09:09;;;;;;;9.85;4.90;;;;;;;12.50;100.00;99838.81;5608268;31;35144;-72
2023/12/25 09:12:30;;;;;;;7.40;4.87;;;;;;;12.25;100.00;99837.56;5607476;31;34158;-72
2023/12/25 09:15:33;;;;;;;8.18;4.85;;;;;;;11.98;100.00;99863.09;5607807;31;34140;-71
2023/12/25 09:18:36;;;;;;;8.70;5.30;;;;;;;11.86;100.00;99847.84;5608161;31;34006;-71
2023/12/25 09:21:39;;;;;;;10.93;5.62;;;;;;;11.51;100.00;99841.50;5607435;31;35141;-72
2023/12/25 09:24:44;;;;;;;8.50;5.72;;;;;;;11.17;100.00;99844.78;5607442;31;35245;-72
2023/12/25 09:27:47;;;;;;;9.10;5.72;;;;;;;11.05;100.00;99830.31;5607537;31;34174;-71
2023/12/25 09:30:50;;;;;;;12.95;6.43;;;;;;;11.08;100.00;99837.91;5607472;31;34132;-71
2023/12/25 09:33:52;;;;;;;12.27;6.35;;;;;;;11.00;100.00;99828.19;5607584;31;35069;-71
2023/12/25 09:36:58;;;;;;;9.85;5.82;;;;;;;11.09;100.00;99840.37;5607365;31;34217;-71
2023/12/25 09:40:01;;;;;;;10.45;6.10;;;;;;;11.02;100.00;99822.72;5607429;31;34121;-72
2023/12/25 09:43:05;;;;;;;11.23;6.03;;;;;;;11.12;100.00;99837.34;5606529;31;35210;-72
2023/12/25 09:46:12;;;;;;;10.85;5.28;;;;;;;11.10;100.00;99833.22;5606379;31;34030;-71
2023/12/25 09:49:17;;;;;;;10.18;5.57;;;;;;;11.16;100.00;99835.97;5606128;31;34335;-72
2023/12/25 09:52:22;;;;;;;10.25;5.57;;;;;;;11.26;100.00;99830.38;5609855;31;34074;-71
2023/12/25 09:55:25;;;;;;;7.82;4.80;;;;;;;11.34;100.00;99832.91;5609743;31;34528;-71
2023/12/25 09:58:32;;;;;;;5.82;3.40;;;;;;;11.38;100.00;99833.37;5609296;31;34037;-71
2023/12/25 10:01:39;;;;;;;6.10;3.40;;;;;;;11.59;100.00;99826.28;5609474;31;34657;-72
2023/12/25 10:04:45;;;;;;;7.90;3.30;;;;;;;11.80;100.00;99824.69;5609246;31;34036;-71
2023/12/25 10:07:48;;;;;;;6.82;3.40;;;;;;;12.03;100.00;99830.63;5609414;31;34129;-72
2023/12/25 10:10:57;;;;;;;5.47;3.20;;;;;;;12.02;100.00;99813.84;5609273;31;34116;-71
2023/12/25 10:14:02;;;;;;;7.53;3.95;;;;;;;12.15;100.00;99821.16;5608644;31;34042;-72
2023/12/25 10:17:06;;;;;;;11.63;6.37;;;;;;;12.19;100.00;99825.91;5609449;31;34088;-71
2023/12/25 10:20:22;;;;;;;11.15;7.22;;;;;;;11.93;100.00;99838.94;5608531;31;34645;-71
2023/12/25 10:23:30;;;;;;;14.55;8.00;;;;;;;11.45;100.00;99829.78;5609798;31;34054;-71
2023/12/25 10:26:32;;;;;;;13.32;8.23;;;;;;;11.36;100.00;99824.78;5609368;31;34357;-72
2023/12/25 10:29:36;;;;;;;14.70;8.88;;;;;;;10.96;100.00;99815.47;5609345;31;34061;-71
2023/12/25 10:32:41;;;;;;;15.27;9.27;;;;;;;10.84;100.00;99802.66;5609817;31;34768;-71
2023/12/25 10:36:13;;;;;;;16.42;8.90;;;;;;;10.89;100.00;99799.50;5609158;31;34712;-71
2023/12/25 10:39:33;;;;;;;14.80;8.73;;;;;;;10.71;100.00;99799.84;5597180;31;35113;-72
2023/12/25 10:42:36;;;;;;;14.60;8.75;;;;;;;11.00;100.00;99811.44;5609128;31;34025;-72
2023/12/25 10:45:41;;;;;;;14.30;8.75;;;;;;;10.84;100.00;99817.78;5608662;31;34296;-72
2023/12/25 10:48:49;;;;;;;15.52;9.10;;;;;;;10.97;100.00;99796.72;5608985;31;34069;-71
2023/12/25 10:51:53;;;;;;;17.55;9.18;;;;;;;10.85;100.00;99804.31;5609101;31;34059;-71
2023/12/25 10:54:57;;;;;;;15.55;9.57;;;;;;;10.87;100.00;99789.03;5608519;31;34132;-72
2023/12/25 10:58:02;;;;;;;17.73;10.05;;;;;;;11.11;100.00;99809.16;5609106;31;34350;-71
2023/12/25 11:01:06;;;;;;;21.10;9.95;;;;;;;10.66;100.00;99791.59;5608037;31;34553;-72
2023/12/25 11:04:09;;;;;;;16.67;9.60;;;;;;;10.87;100.00;99809.44;5609121;31;34112;-72
2023/12/25 11:07:17;;;;;;;17.02;9.80;;;;;;;10.93;100.00;99818.50;5608628;31;34245;-72
2023/12/25 11:10:24;;;;;;;18.55;9.85;;;;;;;10.98;100.00;99809.00;5609078;31;34496;-72
2023/12/25 11:13:31;;;;;;;17.48;9.73;;;;;;;11.13;100.00;99830.22;5608737;31;34124;-73
2023/12/25 11:16:35;;;;;;;16.60;9.70;;;;;;;11.20;100.00;99833.75;5609125;31;34081;-71
2023/12/25 11:19:39;;;;;;;16.60;9.18;;;;;;;11.04;100.00;99824.16;5609144;31;34002;-71
2023/12/25 11:22:44;;;;;;;16.05;9.35;;;;;;;11.09;100.00;99845.66;5608771;31;34019;-71
2023/12/25 11:25:49;;;;;;;16.55;8.55;;;;;;;11.48;100.00;99834.72;5608140;31;34382;-72
2023/12/25 11:29:01;;;;;;;15.60;8.13;;;;;;;11.44;100.00;99851.22;5608974;31;34290;-72
2023/12/25 11:32:11;;;;;;;16.05;8.35;;;;;;;11.67;100.00;99838.59;5608606;31;34124;-71
2023/12/25 11:35:13;;;;;;;14.38;8.18;;;;;;;11.66;100.00;99843.13;5609166;31;34014;-72
2023/12/25 11:38:16;;;;;;;12.32;7.80;;;;;;;11.89;100.00;99835.00;5609002;31;34043;-72
2023/12/25 11:41:20;;;;;;;11.52;7.05;;;;;;;12.08;100.00;99822.91;5609279;31;34774;-72
2023/12/25 11:44:32;;;;;;;21.70;14.68;;;;;;;12.15;100.00;99821.94;5608971;31;34101;-72
2023/12/25 11:47:44;;;;;;;14.05;7.25;;;;;;;12.34;100.00;99811.69;5608087;31;34093;-72
2023/12/25 11:50:59;;;;;;;11.00;6.35;;;;;;;12.31;100.00;99814.72;5608897;31;34399;-72
2023/12/25 11:54:03;;;;;;;9.18;5.78;;;;;;;12.51;100.00;99783.75;5608782;31;35096;-72
2023/12/25 11:57:17;;;;;;;11.18;6.07;;;;;;;12.38;100.00;99789.81;5609021;31;34007;-72
2023/12/25 12:00:19;;;;;;;;;;;;;;;12.43;100.00;99800.72;5609364;31;34325;-72
2023/12/25 12:03:22;;;;;;;11.93;6.10;;;;;;;12.45;100.00;99809.28;5609210;31;34318;-72
2023/12/25 12:06:26;;;;;;;11.48;6.40;;;;;;;12.36;100.00;99839.72;5608678;31;34115;-72
2023/12/25 12:09:29;;;;;;;15.07;6.80;;;;;;;12.33;100.00;99813.53;5607960;31;34009;-72
2023/12/25 12:12:32;;;;;;;11.75;7.28;;;;;;;12.32;100.00;99824.34;5608353;31;34001;-72
2023/12/25 12:15:35;;;;;;;13.62;7.37;;;;;;;11.94;100.00;99818.50;5608636;31;34087;-72
2023/12/25 12:18:38;;;;;;;11.82;7.10;;;;;;;11.92;100.00;99794.75;5608797;31;34714;-73
2023/12/25 12:21:42;;;;;;;14.73;7.40;;;;;;;12.05;100.00;99812.66;5608688;31;34186;-71
2023/12/25 12:24:45;;;;;;;12.80;7.60;;;;;;;12.06;100.00;99827.59;5607522;31;34101;-73
2023/12/25 12:27:49;;;;;;;11.85;6.85;;;;;;;11.80;100.00;99811.41;5608890;31;33444;-74
2023/12/25 12:30:54;;;;;;;14.00;7.62;;;;;;;11.93;100.00;99838.09;5607645;31;34526;-73
2023/12/25 12:33:57;;;;;;;14.98;7.85;;;;;;;11.79;100.00;99829.19;5608559;31;34056;-72
2023/12/25 12:37:04;;;;;;;15.00;7.78;;;;;;;11.80;100.00;99838.81;5607445;31;34527;-72
2023/12/25 12:40:12;;;;;;;11.87;6.87;;;;;;;11.73;100.00;99854.66;5608568;31;34010;-72
2023/12/25 12:43:18;;;;;;;10.55;4.82;;;;;;;11.64;100.00;99826.53;5608720;31;33919;-71
2023/12/25 12:46:25;;;;;;;10.02;5.47;;;;;;;11.85;100.00;99823.13;5608647;31;34132;-72
2023/12/25 12:49:34;;;;;;;15.85;8.40;;;;;;;12.00;100.00;99849.63;5608259;31;33997;-72
2023/12/25 12:52:44;;;;;;;16.33;8.70;;;;;;;11.68;100.00;99848.22;5607624;31;33139;-72
2023/12/25 12:55:47;;;;;;;17.33;8.40;;;;;;;11.60;100.00;99851.00;5608195;31;34072;-72
2023/12/25 12:58:52;;;;;;;16.15;8.48;;;;;;;11.54;100.00;99841.13;5608594;31;34974;-73
2023/12/25 13:01:56;;;;;;;17.50;8.50;;;;;;;11.58;100.00;99845.06;5608038;31;35734;-72
2023/12/25 13:04:59;;;;;;;17.60;7.93;;;;;;;11.51;100.00;99846.81;5607941;31;34055;-72
2023/12/25 13:08:02;;;;;;;14.98;8.73;;;;;;;11.45;100.00;99859.00;5607908;31;34120;-71
2023/12/25 13:11:05;;;;;;;17.37;8.77;;;;;;;11.37;100.00;99819.28;5607748;31;34007;-72
2023/12/25 13:14:08;;;;;;;14.43;8.35;;;;;;;11.33;100.00;99831.25;5607506;31;33975;-72
2023/12/25 13:17:12;;;;;;;16.87;8.48;;;;;;;11.36;100.00;99865.44;5607758;31;34250;-71
2023/12/25 13:20:15;;;;;;;17.83;8.70;;;;;;;11.32;100.00;99872.97;5607655;31;34123;-71
2023/12/25 13:23:19;;;;;;;16.40;8.60;;;;;;;11.41;100.00;99879.00;5607704;31;34016;-71
2023/12/25 13:26:22;;;;;;;15.07;7.50;;;;;;;11.44;100.00;99848.56;5608616;31;34125;-72
2023/12/25 13:29:25;;;;;;;17.85;9.60;;;;;;;11.50;100.00;99835.38;5609707;31;35463;-71
2023/12/25 13:32:28;;;;;;;16.40;8.02;;;;;;;11.40;100.00;99832.19;5610204;31;34252;-72
2023/12/25 13:35:31;;;;;;;16.85;8.45;;;;;;;11.51;100.00;99841.50;5609700;31;33998;-72
2023/12/25 13:38:34;;;;;;;14.95;7.80;;;;;;;11.46;100.00;99860.66;5610058;31;32477;-71
2023/12/25 13:41:39;;;;;;;17.23;8.25;;;;;;;11.40;100.00;99860.56;5610143;31;34879;-72
2023/12/25 13:44:42;;;;;;;15.32;8.25;;;;;;;11.54;100.00;99879.13;5610029;31;33885;-72
2023/12/25 13:47:45;;;;;;;16.52;7.90;;;;;;;11.41;100.00;99854.25;5609925;31;34202;-71
2023/12/25 13:50:55;;;;;;;16.33;7.90;;;;;;;11.37;100.00;99853.00;5609590;31;34812;-72
2023/12/25 13:54:01;;;;;;;13.73;7.55;;;;;;;11.32;100.00;99849.06;5609983;31;34087;-72
2023/12/25 13:57:03;;;;;;;19.02;8.30;;;;;;;11.43;100.00;99860.19;5609199;31;33975;-72
2023/12/25 14:00:09;;;;;;;15.38;7.60;;;;;;;11.18;100.00;99855.19;5609798;31;34297;-71
2023/12/25 14:03:12;;;;;;;14.32;7.78;;;;;;;11.08;100.00;99846.69;5609563;31;35267;-71
2023/12/25 14:06:20;;;;;;;15.02;6.87;;;;;;;11.04;100.00;99839.25;5609864;31;33951;-72
2023/12/25 14:09:24;;;;;;;13.32;6.93;;;;;;;11.12;100.00;99852.47;5609879;31;34457;-71
2023/12/25 14:12:27;;;;;;;13.27;7.10;;;;;;;11.09;100.00;99855.47;5609503;31;34070;-71